createdAt,value
2023-03-07T00:00:57.536Z,2.61
2023-03-07T00:02:30.729Z,2.07
2023-03-07T00:03:55.880Z,2.20
2023-03-07T00:05:32.195Z,3.29
2023-03-07T00:07:06.740Z,4.64
2023-03-07T00:08:28.484Z,5.43
2023-03-07T00:09:50.592Z,5.36
2023-03-07T00:11:19.764Z,4.75
2023-03-07T00:12:41.831Z,3.99
2023-03-07T00:14:04.216Z,3.36
2023-03-07T00:15:41.110Z,2.78
2023-03-07T00:17:03.241Z,2.28
2023-03-07T00:18:38.821Z,1.93
2023-03-07T00:20:01.038Z,2.40
2023-03-07T00:21:36.209Z,3.41
2023-03-07T00:23:09.937Z,4.74
2023-03-07T00:24:31.525Z,5.30
2023-03-07T00:25:53.327Z,4.99
2023-03-07T00:27:48.058Z,4.18
2023-03-07T00:29:32.652Z,3.24
2023-03-07T00:31:18.074Z,2.51
2023-03-07T00:32:59.961Z,1.97
2023-03-07T00:34:44.967Z,2.20
2023-03-07T00:36:25.462Z,3.85
2023-03-07T00:38:10.804Z,5.32
2023-03-07T00:39:55.738Z,5.68
2023-03-07T00:41:17.919Z,5.00
2023-03-07T00:42:54.101Z,4.15
2023-03-07T00:44:27.072Z,3.47
2023-03-07T00:46:12.381Z,2.76
2023-03-07T00:47:57.843Z,2.19
2023-03-07T00:49:38.556Z,1.71
2023-03-07T00:51:05.502Z,1.68
2023-03-07T00:52:27.177Z,2.60
2023-03-07T00:54:08.455Z,3.90
2023-03-07T00:55:42.373Z,4.90
2023-03-07T00:57:07.051Z,4.91
2023-03-07T00:58:31.002Z,4.28
2023-03-07T01:00:05.628Z,3.47
2023-03-07T01:01:29.493Z,2.86
2023-03-07T01:03:10.592Z,2.27
2023-03-07T01:04:42.425Z,1.72
2023-03-07T01:06:06.949Z,1.38
2023-03-07T01:07:42.284Z,1.65
2023-03-07T01:09:12.046Z,2.81
2023-03-07T01:11:07.103Z,4.15
2023-03-07T01:13:01.073Z,4.66
2023-03-07T01:14:36.612Z,3.96
2023-03-07T01:16:09.139Z,3.14
2023-03-07T01:17:35.855Z,2.45
2023-03-07T01:19:16.672Z,1.85
2023-03-07T01:20:40.545Z,1.38
2023-03-07T01:22:03.577Z,1.25
2023-03-07T01:23:31.940Z,2.02
2023-03-07T01:27:16.029Z,4.53
2023-03-07T01:28:37.633Z,4.23
2023-03-07T01:30:18.895Z,3.47
2023-03-07T01:31:43.307Z,2.74
2023-03-07T01:33:19.572Z,2.04
2023-03-07T01:34:49.146Z,1.55
2023-03-07T01:36:29.759Z,1.05
2023-03-07T01:38:08.037Z,0.81
2023-03-07T01:39:43.330Z,1.54
2023-03-07T01:41:24.089Z,2.91
2023-03-07T01:42:47.340Z,3.94
2023-03-07T01:44:23.330Z,3.82
2023-03-07T01:45:57.813Z,3.10
2023-03-07T01:47:31.258Z,2.37
2023-03-07T01:49:07.344Z,1.72
2023-03-07T01:50:30.929Z,1.22
2023-03-07T01:52:00.731Z,0.81
2023-03-07T01:53:22.545Z,0.42
2023-03-07T01:54:49.175Z,0.21
2023-03-07T01:56:19.006Z,0.88
2023-03-07T01:57:48.324Z,1.97
2023-03-07T01:59:18.071Z,3.25
2023-03-07T02:01:03.305Z,3.78
2023-03-07T02:02:36.446Z,3.28
2023-03-07T02:04:12.452Z,2.40
2023-03-07T02:05:46.282Z,1.76
2023-03-07T02:07:10.611Z,1.14
2023-03-07T02:08:34.893Z,0.69
2023-03-07T02:09:57.419Z,0.33
2023-03-07T02:11:23.477Z,0.57
2023-03-07T02:13:04.898Z,1.58
2023-03-07T02:16:55.996Z,4.04
2023-03-07T02:18:20.702Z,3.50
2023-03-07T02:19:52.363Z,2.72
2023-03-07T02:21:14.593Z,2.05
2023-03-07T02:22:40.704Z,1.46
2023-03-07T02:24:14.459Z,0.96
2023-03-07T02:25:42.530Z,0.48
2023-03-07T02:27:23.731Z,0.12
2023-03-07T02:29:02.677Z,0.63
2023-03-07T02:30:29.258Z,1.87
2023-03-07T02:31:54.093Z,3.00
2023-03-07T02:33:23.135Z,3.76
2023-03-07T02:34:56.488Z,3.53
2023-03-07T02:36:38.237Z,2.74
2023-03-07T02:38:11.569Z,1.86
2023-03-07T02:39:33.592Z,1.27
2023-03-07T02:41:14.787Z,0.72
2023-03-07T02:42:48.508Z,0.56
2023-03-07T02:44:10.318Z,1.35
2023-03-07T02:45:34.226Z,2.45
2023-03-07T02:47:15.649Z,3.59
2023-03-07T02:48:48.716Z,3.89
2023-03-07T02:50:20.561Z,3.21
2023-03-07T02:51:49.632Z,2.43
2023-03-07T02:53:25.260Z,1.79
2023-03-07T02:55:04.244Z,1.14
2023-03-07T02:56:30.005Z,0.65
2023-03-07T02:57:54.793Z,0.31
2023-03-07T02:59:23.935Z,0.68
2023-03-07T03:00:46.305Z,1.80
2023-03-07T03:02:11.468Z,2.93
2023-03-07T03:03:47.579Z,3.79
2023-03-07T03:05:16.656Z,3.54
2023-03-07T03:06:38.705Z,2.84
2023-03-07T03:08:12.703Z,2.17
2023-03-07T03:09:46.613Z,1.41
2023-03-07T03:11:08.344Z,0.91
2023-03-07T03:12:32.034Z,0.48
2023-03-07T03:15:13.420Z,-0.22
2023-03-07T03:16:37.490Z,-0.49
2023-03-07T03:18:11.691Z,-0.13
2023-03-07T03:19:33.531Z,0.90
2023-03-07T03:20:56.365Z,2.07
2023-03-07T03:22:28.184Z,2.91
2023-03-07T03:24:00.314Z,2.69
2023-03-07T03:25:24.416Z,2.01
2023-03-07T03:27:09.939Z,1.24
2023-03-07T03:28:50.745Z,0.52
2023-03-07T03:30:38.086Z,-0.05
2023-03-07T03:32:19.112Z,-0.54
2023-03-07T03:33:49.510Z,-0.93
2023-03-07T03:35:25.572Z,-1.28
2023-03-07T03:37:03.455Z,-1.50
2023-03-07T03:38:28.026Z,-0.80
2023-03-07T03:40:05.857Z,0.56
2023-03-07T03:41:35.199Z,1.82
2023-03-07T03:43:12.053Z,2.22
2023-03-07T03:44:45.815Z,1.62
2023-03-07T03:46:39.359Z,0.88
2023-03-07T03:48:25.164Z,0.07
2023-03-07T03:50:10.916Z,-0.53
2023-03-07T03:51:44.924Z,-0.97
2023-03-07T03:53:09.089Z,-1.26
2023-03-07T03:54:50.288Z,-0.65
2023-03-07T03:56:20.006Z,0.77
2023-03-07T03:57:57.812Z,1.92
2023-03-07T03:59:21.746Z,2.42
2023-03-07T04:00:58.095Z,1.87
2023-03-07T04:02:38.352Z,1.16
2023-03-07T04:04:16.067Z,0.37
2023-03-07T04:05:49.797Z,-0.21
2023-03-07T04:07:25.244Z,-0.61
2023-03-07T04:09:02.331Z,0.07
2023-03-07T04:10:23.881Z,1.25
2023-03-07T04:11:59.790Z,2.30
2023-03-07T04:13:33.089Z,3.22
2023-03-07T04:14:55.623Z,2.94
2023-03-07T04:16:30.057Z,2.24
2023-03-07T04:17:52.332Z,1.41
2023-03-07T04:19:14.347Z,0.77
2023-03-07T04:20:56.745Z,0.20
2023-03-07T04:22:23.729Z,-0.33
2023-03-07T04:23:57.542Z,0.02
2023-03-07T04:25:46.764Z,1.37
2023-03-07T04:27:24.063Z,2.67
2023-03-07T04:29:02.465Z,3.30
2023-03-07T04:30:54.036Z,2.69
2023-03-07T04:32:43.054Z,1.74
2023-03-07T04:34:14.889Z,0.84
2023-03-07T04:35:51.138Z,0.20
2023-03-07T04:37:25.229Z,-0.27
2023-03-07T04:38:54.770Z,0.18
2023-03-07T04:40:35.571Z,1.35
2023-03-07T04:42:20.761Z,2.61
2023-03-07T04:43:50.001Z,3.32
2023-03-07T04:45:12.042Z,2.97
2023-03-07T04:46:56.899Z,2.15
2023-03-07T04:48:38.958Z,1.22
2023-03-07T04:50:15.478Z,0.53
2023-03-07T04:51:39.495Z,-0.05
2023-03-07T04:53:06.322Z,-0.47
2023-03-07T04:54:28.142Z,-0.23
2023-03-07T04:56:02.515Z,0.87
2023-03-07T04:57:37.922Z,1.98
2023-03-07T04:59:05.205Z,3.06
2023-03-07T05:00:33.968Z,3.22
2023-03-07T05:02:05.879Z,2.54
2023-03-07T05:03:35.670Z,1.73
2023-03-07T05:05:12.305Z,0.97
2023-03-07T05:06:34.103Z,0.40
2023-03-07T05:08:07.350Z,-0.05
2023-03-07T05:09:30.998Z,0.13
2023-03-07T05:11:12.226Z,1.15
2023-03-07T05:12:52.884Z,2.51
2023-03-07T05:14:27.582Z,3.55
2023-03-07T05:15:49.675Z,3.58
2023-03-07T05:17:12.001Z,2.95
2023-03-07T05:18:33.717Z,2.20
2023-03-07T05:19:56.767Z,1.53
2023-03-07T05:21:32.511Z,0.90
2023-03-07T05:22:55.504Z,0.51
2023-03-07T05:24:28.853Z,0.87
2023-03-07T05:26:04.690Z,2.21
2023-03-07T05:27:37.878Z,3.46
2023-03-07T05:29:07.636Z,4.25
2023-03-07T05:30:29.434Z,4.13
2023-03-07T05:31:51.385Z,3.45
2023-03-07T05:33:22.197Z,2.70
2023-03-07T05:34:55.324Z,1.97
2023-03-07T05:36:17.729Z,1.34
2023-03-07T05:37:41.994Z,0.90
2023-03-07T05:39:05.265Z,1.06
2023-03-07T05:40:38.458Z,2.13
2023-03-07T05:42:11.015Z,3.34
2023-03-07T05:43:33.013Z,4.32
2023-03-07T05:44:55.045Z,4.60
2023-03-07T05:46:28.027Z,4.11
2023-03-07T05:47:50.615Z,3.29
2023-03-07T05:49:12.780Z,2.62
2023-03-07T05:50:55.293Z,1.98
2023-03-07T05:52:24.251Z,1.47
2023-03-07T05:53:46.605Z,1.48
2023-03-07T05:55:10.967Z,2.35
2023-03-07T05:56:40.223Z,3.44
2023-03-07T05:58:13.914Z,4.64
2023-03-07T05:59:38.394Z,4.92
2023-03-07T06:01:00.404Z,4.41
2023-03-07T06:02:25.279Z,3.70
2023-03-07T06:03:49.635Z,2.99
2023-03-07T06:05:11.400Z,2.43
2023-03-07T06:06:35.592Z,1.95
2023-03-07T06:07:58.091Z,1.82
2023-03-07T06:09:28.740Z,2.54
2023-03-07T06:10:51.847Z,3.73
2023-03-07T06:12:23.190Z,4.82
2023-03-07T06:13:45.072Z,5.30
2023-03-07T06:15:11.822Z,4.89
2023-03-07T06:16:47.133Z,4.16
2023-03-07T06:18:11.086Z,3.39
2023-03-07T06:19:35.309Z,2.79
2023-03-07T06:20:58.647Z,2.28
2023-03-07T06:22:20.274Z,1.90
2023-03-07T06:23:56.568Z,2.31
2023-03-07T06:25:27.646Z,3.46
2023-03-07T06:26:49.712Z,4.54
2023-03-07T06:28:13.579Z,5.36
2023-03-07T06:29:50.985Z,5.27
2023-03-07T06:31:13.013Z,4.56
2023-03-07T06:32:37.311Z,3.88
2023-03-07T06:34:02.131Z,3.24
2023-03-07T06:35:23.589Z,2.74
2023-03-07T06:36:59.934Z,2.24
2023-03-07T06:38:35.518Z,2.08
2023-03-07T06:40:17.029Z,2.98
2023-03-07T06:41:39.171Z,4.17
2023-03-07T06:43:15.042Z,5.32
2023-03-07T06:44:38.740Z,5.89
2023-03-07T06:46:12.719Z,5.56
2023-03-07T06:47:36.960Z,4.76
2023-03-07T06:48:59.601Z,4.06
2023-03-07T06:50:35.450Z,3.49
2023-03-07T06:52:10.303Z,2.93
2023-03-07T06:53:31.615Z,2.72
2023-03-07T06:55:01.360Z,3.49
2023-03-07T06:56:35.901Z,4.73
2023-03-07T06:58:08.221Z,5.91
2023-03-07T06:59:37.252Z,6.47
2023-03-07T07:00:59.143Z,6.09
2023-03-07T07:02:23.198Z,5.41
2023-03-07T07:03:49.858Z,4.68
2023-03-07T07:05:31.296Z,4.02
2023-03-07T07:07:00.886Z,3.40
2023-03-07T07:08:22.563Z,3.08
2023-03-07T07:09:56.809Z,3.65
2023-03-07T07:11:18.257Z,4.71
2023-03-07T07:12:43.208Z,5.81
2023-03-07T07:14:23.336Z,6.78
2023-03-07T07:16:04.173Z,6.73
2023-03-07T07:17:44.661Z,5.96
2023-03-07T07:19:07.000Z,5.20
2023-03-07T07:20:38.037Z,4.60
2023-03-07T07:22:02.578Z,4.07
2023-03-07T07:23:27.054Z,3.75
2023-03-07T07:24:53.389Z,4.26
2023-03-07T07:26:24.888Z,5.39
2023-03-07T07:27:46.515Z,6.44
2023-03-07T07:29:22.517Z,7.24
2023-03-07T07:30:46.617Z,7.18
2023-03-07T07:32:21.407Z,6.52
2023-03-07T07:34:06.690Z,5.63
2023-03-07T07:35:43.330Z,4.93
2023-03-07T07:37:08.943Z,4.31
2023-03-07T07:38:33.621Z,4.34
2023-03-07T07:39:56.112Z,5.16
2023-03-07T07:41:18.457Z,6.16
2023-03-07T07:42:47.885Z,7.09
2023-03-07T07:44:16.331Z,7.63
2023-03-07T07:46:00.358Z,7.07
2023-03-07T07:47:24.623Z,6.35
2023-03-07T07:48:58.348Z,5.56
2023-03-07T07:50:23.321Z,4.99
2023-03-07T07:51:52.448Z,4.56
2023-03-07T07:53:26.344Z,4.91
2023-03-07T07:54:48.112Z,6.02
2023-03-07T07:56:17.625Z,7.05
2023-03-07T07:57:51.610Z,7.96
2023-03-07T07:59:27.401Z,7.86
2023-03-07T08:00:59.536Z,7.11
2023-03-07T08:02:28.807Z,6.38
2023-03-07T08:04:06.054Z,5.67
2023-03-07T08:05:51.487Z,5.07
2023-03-07T08:07:26.682Z,4.81
2023-03-07T08:09:00.302Z,5.54
2023-03-07T08:10:45.141Z,6.86
2023-03-07T08:12:09.882Z,7.98
2023-03-07T08:13:42.756Z,8.46
2023-03-07T08:15:16.660Z,8.03
2023-03-07T08:16:50.545Z,7.18
2023-03-07T08:18:23.790Z,6.56
2023-03-07T08:19:45.471Z,6.00
2023-03-07T08:21:21.537Z,5.60
2023-03-07T08:23:07.120Z,5.81
2023-03-07T08:24:44.653Z,6.98
2023-03-07T08:26:21.444Z,8.40
2023-03-07T08:27:57.409Z,8.81
2023-03-07T08:29:46.429Z,8.30
2023-03-07T08:31:28.448Z,7.44
2023-03-07T08:33:14.276Z,6.79
2023-03-07T08:34:40.477Z,6.28
2023-03-07T08:36:05.206Z,5.89
2023-03-07T08:37:34.333Z,5.57
2023-03-07T08:39:11.318Z,5.44
2023-03-07T08:40:52.124Z,6.32
2023-03-07T08:42:26.162Z,7.52
2023-03-07T08:44:11.695Z,8.76
2023-03-07T08:45:37.787Z,8.81
2023-03-07T08:47:11.760Z,8.28
2023-03-07T08:48:54.431Z,7.52
2023-03-07T08:50:23.690Z,6.98
2023-03-07T08:51:45.378Z,6.57
2023-03-07T08:53:15.042Z,6.24
2023-03-07T08:54:36.621Z,5.91
2023-03-07T08:56:01.470Z,5.65
2023-03-07T08:57:25.563Z,6.03
2023-03-07T08:58:55.337Z,7.15
2023-03-07T09:00:25.149Z,8.37
2023-03-07T09:01:49.667Z,9.14
2023-03-07T09:03:11.474Z,9.04
2023-03-07T09:04:35.225Z,8.56
2023-03-07T09:06:04.980Z,8.01
2023-03-07T09:07:29.300Z,7.52
2023-03-07T09:09:03.596Z,7.09
2023-03-07T09:10:27.748Z,6.77
2023-03-07T09:11:52.703Z,6.48
2023-03-07T09:13:26.017Z,6.21
2023-03-07T09:14:47.810Z,6.03
2023-03-07T09:16:17.287Z,6.38
2023-03-07T09:17:54.080Z,7.49
2023-03-07T09:19:27.627Z,8.88
2023-03-07T09:20:59.224Z,9.47
2023-03-07T09:22:20.729Z,9.17
2023-03-07T09:23:42.495Z,8.63
2023-03-07T09:25:12.414Z,8.07
2023-03-07T09:26:57.544Z,7.53
2023-03-07T09:28:21.426Z,7.08
2023-03-07T09:29:43.666Z,6.70
2023-03-07T09:31:17.467Z,6.31
2023-03-07T09:32:41.358Z,6.03
2023-03-07T09:34:15.304Z,6.42
2023-03-07T09:35:36.831Z,7.41
2023-03-07T09:37:01.407Z,8.53
2023-03-07T09:38:27.275Z,9.36
2023-03-07T09:39:49.031Z,9.24
2023-03-07T09:41:22.743Z,8.60
2023-03-07T09:42:47.146Z,8.01
2023-03-07T09:44:12.457Z,7.52
2023-03-07T09:45:55.138Z,7.02
2023-03-07T09:47:17.007Z,6.66
2023-03-07T09:48:38.555Z,6.34
2023-03-07T09:50:00.884Z,6.05
2023-03-07T09:51:22.424Z,6.16
2023-03-07T09:52:51.740Z,7.07
2023-03-07T09:54:16.233Z,8.39
2023-03-07T09:55:52.316Z,9.37
2023-03-07T09:57:21.500Z,9.30
2023-03-07T09:58:55.556Z,8.67
2023-03-07T10:00:16.958Z,8.12
2023-03-07T10:01:40.897Z,7.64
2023-03-07T10:03:26.500Z,7.16
2023-03-07T10:04:48.041Z,6.79
2023-03-07T10:06:12.384Z,6.52
2023-03-07T10:07:33.990Z,6.31
2023-03-07T10:08:56.163Z,6.12
2023-03-07T10:10:29.711Z,5.95
2023-03-07T10:11:52.199Z,6.48
2023-03-07T10:13:15.886Z,7.64
2023-03-07T10:14:56.707Z,9.04
2023-03-07T10:16:32.698Z,9.79
2023-03-07T10:18:17.593Z,9.47
2023-03-07T10:19:59.058Z,8.77
2023-03-07T10:21:33.165Z,8.24
2023-03-07T10:22:57.666Z,7.80
2023-03-07T10:24:19.100Z,7.46
2023-03-07T10:25:40.578Z,7.18
2023-03-07T10:27:05.012Z,6.97
2023-03-07T10:28:42.378Z,6.80
2023-03-07T10:30:16.836Z,6.67
2023-03-07T10:31:45.910Z,6.54
2023-03-07T10:33:28.849Z,6.42
2023-03-07T10:35:02.865Z,6.24
2023-03-07T10:36:35.757Z,6.14
2023-03-07T10:38:00.516Z,6.59
2023-03-07T10:39:24.434Z,7.73
2023-03-07T10:40:56.544Z,8.96
2023-03-07T10:42:18.196Z,9.52
2023-03-07T10:44:00.306Z,9.27
2023-03-07T10:45:45.784Z,8.58
2023-03-07T10:47:12.792Z,8.01
2023-03-07T10:48:57.744Z,7.56
2023-03-07T10:50:43.043Z,7.16
2023-03-07T10:52:19.184Z,6.85
2023-03-07T10:53:52.870Z,6.60
2023-03-07T10:55:28.805Z,6.39
2023-03-07T10:57:04.603Z,6.22
2023-03-07T10:58:41.398Z,6.08
2023-03-07T11:00:05.869Z,5.97
2023-03-07T11:01:51.397Z,5.90
2023-03-07T11:03:27.454Z,5.88
2023-03-07T11:05:04.240Z,6.30
2023-03-07T11:06:40.217Z,7.69
2023-03-07T11:08:16.142Z,9.24
2023-03-07T11:09:44.743Z,9.91
2023-03-07T11:11:09.360Z,9.81
2023-03-07T11:12:43.060Z,9.41
2023-03-07T11:14:24.451Z,9.03
2023-03-07T11:15:46.331Z,8.78
2023-03-07T11:17:19.899Z,8.65
2023-03-07T11:19:05.316Z,8.54
2023-03-07T11:20:29.204Z,8.52
2023-03-07T11:22:04.282Z,8.42
2023-03-07T11:23:26.199Z,8.25
2023-03-07T11:25:10.226Z,8.05
2023-03-07T11:26:43.220Z,7.80
2023-03-07T11:28:07.495Z,7.61
2023-03-07T11:29:29.546Z,7.54
2023-03-07T11:30:51.901Z,7.45
2023-03-07T11:32:25.070Z,7.31
2023-03-07T11:33:58.664Z,7.19
2023-03-07T11:35:42.173Z,7.06
2023-03-07T11:37:14.730Z,6.94
2023-03-07T11:38:48.559Z,6.85
2023-03-07T11:40:25.685Z,6.70
2023-03-07T11:42:10.913Z,6.57
2023-03-07T11:43:54.022Z,6.49
2023-03-07T11:45:27.813Z,6.38
2023-03-07T11:47:09.412Z,6.27
2023-03-07T11:48:50.568Z,6.15
2023-03-07T11:50:12.923Z,6.05
2023-03-07T11:51:42.115Z,5.98
2023-03-07T11:53:09.180Z,5.95
2023-03-07T11:54:34.017Z,5.94
2023-03-07T11:56:11.203Z,5.94
2023-03-07T11:57:52.219Z,5.94
2023-03-07T11:59:14.532Z,5.91
2023-03-07T12:00:56.250Z,5.88
2023-03-07T12:02:29.340Z,5.87
2023-03-07T12:03:54.018Z,5.86
2023-03-07T12:05:39.277Z,5.84
2023-03-07T12:07:01.455Z,5.80
2023-03-07T12:08:30.287Z,5.76
2023-03-07T12:09:54.563Z,5.72
2023-03-07T12:11:47.044Z,5.65
2023-03-07T12:13:11.369Z,5.59
2023-03-07T12:14:40.370Z,5.54
2023-03-07T12:16:26.091Z,5.48
2023-03-07T12:18:00.081Z,5.43
2023-03-07T12:19:31.193Z,5.40
2023-03-07T12:21:13.731Z,5.35
2023-03-07T12:22:52.207Z,5.30
2023-03-07T12:24:28.937Z,5.26
2023-03-07T12:25:53.113Z,5.23
2023-03-07T12:27:27.037Z,5.21
2023-03-07T12:29:00.960Z,5.18
2023-03-07T12:30:32.231Z,5.15
2023-03-07T12:31:59.064Z,5.11
2023-03-07T12:33:25.163Z,5.08
2023-03-07T12:34:48.621Z,5.04
2023-03-07T12:36:18.226Z,5.02
2023-03-07T12:37:47.585Z,4.99
2023-03-07T12:39:20.087Z,4.96
2023-03-07T12:41:05.111Z,4.91
2023-03-07T12:42:36.052Z,4.87
2023-03-07T12:44:11.989Z,4.84
2023-03-07T12:45:36.093Z,4.82
2023-03-07T12:47:05.461Z,4.81
2023-03-07T12:48:34.322Z,4.78
2023-03-07T12:49:56.873Z,4.75
2023-03-07T12:51:26.753Z,4.71
2023-03-07T12:52:50.924Z,4.69
2023-03-07T12:54:13.063Z,5.28
2023-03-07T12:55:46.177Z,6.60
2023-03-07T12:57:18.310Z,7.91
2023-03-07T12:58:44.675Z,8.35
2023-03-07T13:00:15.706Z,8.00
2023-03-07T13:02:01.016Z,7.43
2023-03-07T13:03:34.245Z,6.85
2023-03-07T13:05:15.468Z,6.41
2023-03-07T13:06:41.760Z,6.08
2023-03-07T13:08:15.854Z,5.81
2023-03-07T13:09:49.184Z,5.54
2023-03-07T13:11:31.617Z,5.36
2023-03-07T13:13:26.475Z,5.13
2023-03-07T13:14:51.497Z,4.97
2023-03-07T13:16:38.065Z,4.84
2023-03-07T13:18:11.868Z,5.19
2023-03-07T13:19:44.981Z,6.42
2023-03-07T13:21:18.756Z,7.81
2023-03-07T13:22:53.293Z,8.56
2023-03-07T13:24:17.761Z,8.33
2023-03-07T13:26:00.692Z,7.80
2023-03-07T13:27:35.785Z,7.18
2023-03-07T13:29:01.041Z,6.77
2023-03-07T13:30:36.567Z,6.42
2023-03-07T13:32:20.159Z,6.12
2023-03-07T13:33:49.356Z,5.82
2023-03-07T13:35:29.403Z,5.62
2023-03-07T13:37:03.638Z,5.47
2023-03-07T13:38:57.314Z,5.31
2023-03-07T13:40:23.941Z,5.18
2023-03-07T13:41:59.904Z,5.08
2023-03-07T13:43:54.075Z,5.29
2023-03-07T13:45:34.785Z,6.74
2023-03-07T13:47:17.052Z,8.04
2023-03-07T13:48:53.791Z,8.48
2023-03-07T13:50:47.328Z,8.03
2023-03-07T13:52:26.599Z,7.48
2023-03-07T13:54:12.866Z,6.96
2023-03-07T13:55:50.243Z,6.61
2023-03-07T13:57:39.338Z,6.32
2023-03-07T13:59:24.439Z,6.08
2023-03-07T14:00:59.196Z,5.92
2023-03-07T14:02:44.110Z,5.77
2023-03-07T14:04:41.002Z,5.62
2023-03-07T14:06:26.750Z,5.49
2023-03-07T14:08:07.275Z,5.38
2023-03-07T14:09:41.882Z,5.30
2023-03-07T14:11:27.214Z,5.21
2023-03-07T14:13:00.509Z,5.16
2023-03-07T14:14:41.115Z,5.10
2023-03-07T14:16:26.331Z,5.06
2023-03-07T14:17:59.936Z,5.00
2023-03-07T14:19:30.930Z,5.19
2023-03-07T14:21:11.716Z,6.33
2023-03-07T14:22:46.335Z,7.79
2023-03-07T14:24:26.872Z,8.70
2023-03-07T14:25:52.465Z,8.47
2023-03-07T14:27:37.660Z,7.94
2023-03-07T14:28:59.602Z,7.46
2023-03-07T14:30:40.117Z,7.04
2023-03-07T14:32:25.491Z,6.68
2023-03-07T14:33:47.158Z,6.41
2023-03-07T14:35:15.330Z,6.21
2023-03-07T14:36:46.175Z,6.02
2023-03-07T14:38:32.163Z,5.82
2023-03-07T14:39:55.949Z,5.65
2023-03-07T14:41:31.637Z,5.52
2023-03-07T14:43:05.681Z,5.40
2023-03-07T14:44:27.242Z,5.29
2023-03-07T14:46:12.919Z,5.22
2023-03-07T14:47:52.588Z,5.14
2023-03-07T14:49:47.047Z,5.06
2023-03-07T14:51:37.600Z,4.99
2023-03-07T14:53:07.154Z,5.21
2023-03-07T14:54:52.393Z,6.47
2023-03-07T14:56:26.536Z,7.91
2023-03-07T14:58:01.449Z,8.51
2023-03-07T14:59:34.338Z,8.15
2023-03-07T15:01:19.436Z,7.65
2023-03-07T15:02:59.007Z,7.17
2023-03-07T15:04:32.934Z,6.75
2023-03-07T15:05:57.378Z,6.41
2023-03-07T15:07:50.692Z,6.13
2023-03-07T15:09:35.514Z,5.87
2023-03-07T15:11:16.970Z,5.66
2023-03-07T15:13:02.198Z,5.49
2023-03-07T15:14:56.059Z,5.34
2023-03-07T15:16:41.412Z,5.19
2023-03-07T15:18:18.329Z,5.08
2023-03-07T15:19:58.901Z,4.99
2023-03-07T15:21:45.859Z,4.90
2023-03-07T15:23:31.691Z,5.50
2023-03-07T15:25:07.860Z,6.87
2023-03-07T15:26:32.215Z,8.16
2023-03-07T15:28:17.993Z,8.41
2023-03-07T15:29:59.033Z,7.90
2023-03-07T15:31:25.228Z,7.37
2023-03-07T15:33:06.120Z,6.90
2023-03-07T15:34:59.452Z,6.45
2023-03-07T15:36:53.357Z,6.08
2023-03-07T15:38:26.887Z,5.76
2023-03-07T15:40:02.689Z,5.58
2023-03-07T15:41:45.046Z,5.41
2023-03-07T15:43:48.052Z,5.22
2023-03-07T15:45:21.568Z,5.08
2023-03-07T15:47:06.711Z,4.95
2023-03-07T15:49:00.419Z,4.96
2023-03-07T15:50:51.754Z,6.17
2023-03-07T15:52:35.010Z,7.66
2023-03-07T15:54:20.623Z,8.39
2023-03-07T15:56:05.783Z,7.94
2023-03-07T15:57:42.053Z,7.34
2023-03-07T15:59:33.016Z,6.85
2023-03-07T16:01:06.189Z,6.40
2023-03-07T16:02:39.688Z,6.07
2023-03-07T16:04:25.223Z,5.76
2023-03-07T16:06:10.011Z,5.52
2023-03-07T16:07:45.426Z,5.28
2023-03-07T16:09:21.011Z,5.13
2023-03-07T16:11:05.837Z,4.96
2023-03-07T16:12:56.450Z,5.15
2023-03-07T16:14:32.612Z,6.40
2023-03-07T16:16:18.264Z,7.93
2023-03-07T16:18:09.004Z,8.44
2023-03-07T16:19:52.044Z,7.98
2023-03-07T16:21:46.026Z,7.29
2023-03-07T16:23:40.037Z,6.69
2023-03-07T16:25:25.355Z,6.21
2023-03-07T16:26:58.684Z,5.90
2023-03-07T16:28:32.215Z,5.63
2023-03-07T16:30:08.802Z,5.37
2023-03-07T16:31:53.271Z,5.20
2023-03-07T16:33:48.097Z,4.99
2023-03-07T16:35:43.103Z,4.98
2023-03-07T16:37:38.071Z,6.25
2023-03-07T16:39:18.887Z,7.91
2023-03-07T16:40:59.807Z,8.46
2023-03-07T16:42:48.574Z,8.04
2023-03-07T16:44:22.185Z,7.35
2023-03-07T16:45:58.240Z,6.83
2023-03-07T16:47:55.021Z,6.37
2023-03-07T16:49:40.327Z,5.95
2023-03-07T16:51:25.652Z,5.63
2023-03-07T16:53:10.829Z,5.37
2023-03-07T16:54:55.947Z,5.15
2023-03-07T16:56:41.590Z,4.99
2023-03-07T16:58:17.802Z,5.72
2023-03-07T16:59:49.080Z,7.02
2023-03-07T17:01:10.957Z,8.20
2023-03-07T17:02:35.105Z,8.60
2023-03-07T17:04:20.750Z,8.20
2023-03-07T17:05:52.623Z,7.55
2023-03-07T17:07:14.714Z,7.04
2023-03-07T17:08:55.350Z,6.58
2023-03-07T17:10:26.596Z,6.17
2023-03-07T17:11:58.340Z,5.83
2023-03-07T17:13:22.975Z,5.56
2023-03-07T17:15:07.876Z,5.32
2023-03-07T17:16:43.688Z,5.37
2023-03-07T17:18:20.462Z,6.32
2023-03-07T17:20:05.025Z,7.69
2023-03-07T17:21:38.310Z,8.71
2023-03-07T17:23:23.875Z,8.47
2023-03-07T17:25:09.145Z,7.76
2023-03-07T17:27:02.365Z,7.10
2023-03-07T17:28:36.603Z,6.52
2023-03-07T17:30:21.857Z,6.13
2023-03-07T17:31:58.365Z,5.81
2023-03-07T17:33:20.416Z,5.53
2023-03-07T17:34:56.099Z,5.40
2023-03-07T17:36:31.525Z,6.20
2023-03-07T17:38:05.593Z,7.51
2023-03-07T17:39:42.356Z,8.63
2023-03-07T17:41:06.992Z,8.85
2023-03-07T17:42:47.714Z,8.31
2023-03-07T17:44:29.519Z,7.59
2023-03-07T17:46:07.734Z,6.95
2023-03-07T17:47:36.955Z,6.52
2023-03-07T17:49:22.295Z,6.10
2023-03-07T17:50:55.584Z,5.75
2023-03-07T17:52:40.551Z,5.67
2023-03-07T17:54:09.763Z,6.55
2023-03-07T17:55:34.084Z,7.76
2023-03-07T17:57:07.352Z,8.77
2023-03-07T17:59:01.074Z,8.92
2023-03-07T18:00:34.778Z,8.18
2023-03-07T18:02:08.162Z,7.62
2023-03-07T18:03:53.012Z,7.03
2023-03-07T18:05:39.019Z,6.44
2023-03-07T18:07:19.981Z,6.01
2023-03-07T18:09:05.281Z,5.82
2023-03-07T18:10:59.044Z,6.75
2023-03-07T18:12:35.952Z,8.14
2023-03-07T18:14:21.457Z,9.19
2023-03-07T18:15:45.416Z,8.95
2023-03-07T18:17:47.900Z,8.29
2023-03-07T18:19:30.167Z,7.43
2023-03-07T18:21:06.154Z,6.84
2023-03-07T18:22:41.233Z,6.38
2023-03-07T18:24:36.050Z,6.01
2023-03-07T18:26:10.156Z,6.05
2023-03-07T18:27:39.085Z,7.03
2023-03-07T18:29:15.515Z,8.31
2023-03-07T18:30:49.097Z,9.22
2023-03-07T18:32:34.281Z,9.05
2023-03-07T18:34:19.982Z,8.38
2023-03-07T18:36:01.123Z,7.56
2023-03-07T18:37:34.623Z,6.97
2023-03-07T18:39:11.145Z,6.56
2023-03-07T18:40:57.073Z,6.14
2023-03-07T18:42:44.396Z,5.84
2023-03-07T18:44:25.357Z,6.55
2023-03-07T18:45:59.561Z,7.79
2023-03-07T18:49:58.081Z,9.01
2023-03-07T18:51:51.987Z,8.26
2023-03-07T18:53:25.263Z,7.47
2023-03-07T18:55:09.728Z,6.92
2023-03-07T18:56:44.101Z,6.39
2023-03-07T18:58:17.788Z,6.10
2023-03-07T19:00:00.980Z,6.57
2023-03-07T19:01:50.113Z,8.03
2023-03-07T19:03:35.526Z,9.29
2023-03-07T19:05:20.871Z,9.28
2023-03-07T19:07:06.015Z,8.52
2023-03-07T19:08:55.152Z,7.70
2023-03-07T19:10:48.825Z,6.98
2023-03-07T19:12:11.432Z,6.44
2023-03-07T19:14:07.061Z,6.18
2023-03-07T19:15:39.464Z,7.11
2023-03-07T19:17:11.472Z,8.29
2023-03-07T19:18:56.615Z,9.32
2023-03-07T19:20:38.040Z,9.40
2023-03-07T19:22:25.304Z,8.66
2023-03-07T19:24:11.951Z,7.80
2023-03-07T19:25:44.987Z,7.09
2023-03-07T19:27:38.733Z,6.56
2023-03-07T19:29:14.230Z,6.51
2023-03-07T19:30:59.171Z,7.62
2023-03-07T19:32:42.152Z,8.76
2023-03-07T19:34:27.389Z,9.59
2023-03-07T19:35:58.898Z,9.19
2023-03-07T19:37:35.167Z,8.38
2023-03-07T19:39:21.252Z,7.62
2023-03-07T19:41:04.769Z,6.96
2023-03-07T19:42:37.932Z,6.44
2023-03-07T19:44:11.959Z,6.50
2023-03-07T19:46:01.680Z,7.61
2023-03-07T19:47:30.980Z,8.88
2023-03-07T19:49:08.035Z,9.71
2023-03-07T19:50:41.114Z,9.39
2023-03-07T19:52:26.368Z,8.64
2023-03-07T19:53:59.552Z,7.81
2023-03-07T19:55:35.348Z,7.22
2023-03-07T19:57:16.443Z,6.64
2023-03-07T19:59:01.882Z,7.00
2023-03-07T20:00:46.816Z,8.17
2023-03-07T20:02:23.205Z,9.25
2023-03-07T20:04:09.553Z,9.86
2023-03-07T20:06:04.048Z,9.29
2023-03-07T20:07:57.651Z,8.29
2023-03-07T20:09:31.507Z,7.40
2023-03-07T20:11:17.332Z,6.82
2023-03-07T20:12:57.906Z,6.88
2023-03-07T20:14:51.189Z,7.96
2023-03-07T20:16:38.483Z,9.31
2023-03-07T20:18:13.170Z,9.93
2023-03-07T20:20:07.030Z,9.40
2023-03-07T20:22:00.261Z,8.45
2023-03-07T20:23:48.608Z,7.55
2023-03-07T20:25:12.895Z,6.94
2023-03-07T20:27:06.752Z,6.45
2023-03-07T20:28:42.424Z,6.39
2023-03-07T20:30:36.082Z,7.39
2023-03-07T20:32:09.933Z,8.70
2023-03-07T20:33:44.801Z,9.61
2023-03-07T20:35:25.800Z,9.38
2023-03-07T20:37:01.879Z,8.59
2023-03-07T20:38:38.131Z,7.87
2023-03-07T20:40:11.586Z,7.23
2023-03-07T20:41:52.345Z,6.76
2023-03-07T20:43:23.997Z,6.45
2023-03-07T20:45:19.022Z,7.20
2023-03-07T20:46:55.733Z,8.60
2023-03-07T20:48:19.946Z,9.52
2023-03-07T20:50:05.001Z,9.59
2023-03-07T20:51:59.961Z,8.84
2023-03-07T20:53:33.481Z,7.90
2023-03-07T20:55:00.098Z,7.30
2023-03-07T20:56:34.550Z,6.80
2023-03-07T20:58:10.464Z,6.83
2023-03-07T20:59:55.186Z,7.91
2023-03-07T21:01:28.556Z,9.13
2023-03-07T21:03:13.772Z,9.96
2023-03-07T21:04:49.453Z,9.81